This is the latest recevied weather packets stored in our database for station/object KG4AGD. If no packets are shown the sender has not sent any weather packets the latest 10 day(s).
| Time | Temp. | Humidity | Pressure | Rain* | Wind** | Luminosity | Snow |
|---|---|---|---|---|---|---|---|
| 1777513254 | 20.56° C | 89% | 1009.4 hPa | 0 mm | - | - | - |
| 1777512952 | 20.56° C | 89% | 1009.4 hPa | 0 mm | - | - | - |
| 1777512650 | 20.56° C | 89% | 1009.4 hPa | 0 mm | - | - | - |
| 1777512045 | 20.56° C | 88% | 1009.1 hPa | 0 mm | - | - | - |
| 1777511741 | 20.56° C | 88% | 1009.1 hPa | 0 mm | - | - | - |
| 1777511439 | 20.56° C | 89% | 1009.1 hPa | 0 mm | - | - | - |
| 1777511137 | 20.56° C | 89% | 1009.1 hPa | 0 mm | - | - | - |
| 1777510835 | 20.56° C | 89% | 1009.1 hPa | 0 mm | - | - | - |
| 1777510533 | 20° C | 89% | 1009.1 hPa | 0 mm | - | - | - |
| 1777510230 | 20° C | 88% | 1009.1 hPa | 0 mm | - | - | - |
| 1777509324 | 20.56° C | 88% | 1008.8 hPa | 0 mm | - | - | - |
| 1777509022 | 20.56° C | 87% | 1008.8 hPa | 0 mm | - | - | - |
| 1777508719 | 20.56° C | 85% | 1008.8 hPa | 0 mm | - | - | - |
| 1777507813 | 21.11° C | 83% | 1008.8 hPa | 0 mm | - | - | - |
| 1777507510 | 21.67° C | 83% | 1008.8 hPa | 0 mm | - | - | - |
| 1777505090 | 24.44° C | 73% | 1008.4 hPa | 0 mm | - | - | - |
| 1777502672 | 26.11° C | 65% | 1008.8 hPa | 0 mm | - | - | - |
| 1777502068 | 26.11° C | 65% | 1008.8 hPa | 0 mm | - | - | - |
| 1777501765 | 26.11° C | 65% | 1008.8 hPa | 0 mm | - | - | - |
| 1777501463 | 26.11° C | 65% | 1008.8 hPa | 0 mm | - | - | - |
| 1777501160 | 26.11° C | 65% | 1009.1 hPa | 0 mm | - | - | - |
| 1777500556 | 26.11° C | 64% | 1009.1 hPa | 0 mm | - | - | - |
| 1777500254 | 26.11° C | 64% | 1009.1 hPa | 0 mm | - | - | - |
| 1777499347 | 26.11° C | 63% | 1009.1 hPa | 0 mm | - | - | - |
| 1777498742 | 25.56° C | 67% | 1009.1 hPa | 0 mm | - | - | - |
* Rain since midnight (hover to see other rain measurements)
** Current wind speed in m/s (hover to see current wind gust speed)